Apj Shirin — 3EVS6 — position and weather

sailwx.info

Track history (hours):
 
Tides and Currents Weather Stations Pressure Air Temp Water Temp Dewpoint Dewpoint Depression Visibility Wind Speed Wind Dir Waves Ship Positions

Apj Shirin

Last reported at 2017-May-16 22:45 UTC. Time now 2017-May-22 19:26 UTC.
Position N 31°60' E 120°50'.

Length 189 m; draft 6.8 m.

Type: Cargo ship. MMSI: 373223000.

Date/timePositionNaut miles runAvg speedWind from/ knotsBaromVisibWave heightAir tempDewpointWater temp
2017-May-16 22:45N 31°60' E 120°50'0 0.0
2017-May-16 22:12N 31°60' E 120°50'0 0.0
2017-May-16 21:48N 31°60' E 120°50'0 0.0
2017-May-16 20:45N 31°60' E 120°50'0 0.0
2017-May-16 20:29N 31°60' E 120°50'  
2017-May-13 10:49N 31°46' E 121°04'411.2
2017-May-13 10:30N 31°44' E 121°07'611.3
2017-May-13 10:00N 31°40' E 121°12'611.8
2017-May-13 09:30N 31°36' E 121°17'612.2
2017-May-13 09:00N 31°32' E 121°22'612.1
2017-May-13 08:30N 31°28' E 121°28'4 8.6
2017-May-13 08:00N 31°25' E 121°31'4 7.1
2017-May-13 07:30N 31°23' E 121°35'3 6.8
2017-May-13 07:00N 31°22' E 121°39'4 8.4
2017-May-13 06:30N 31°19' E 121°43'713.3
2017-May-13 06:00N 31°14' E 121°47'815.3
2017-May-13 05:31N 31°09' E 121°54'612.5
2017-May-13 05:01N 31°05' E 122°00'713.7
2017-May-13 04:30N 31°03' E 122°08'610.9
2017-May-13 04:00N 31°03' E 122°14'4 8.5
2017-May-13 03:30N 31°03' E 122°19'3 6.6
2017-May-13 03:00N 31°02' E 122°23'3 6.6
2017-May-13 02:30N 31°01' E 122°27'3 6.5
2017-May-13 02:00N 31°00' E 122°30'3 6.9
2017-May-13 01:30N 30°60' E 122°34'3 5.9
2017-May-13 01:00N 30°59' E 122°38'3 5.6
2017-May-13 00:30N 30°58' E 122°40'3 5.9
2017-May-12 23:57N 30°56' E 122°44'3 6.4
2017-May-12 23:27N 30°54' E 122°47'3 6.3
2017-May-12 22:57N 30°52' E 122°50'3 7.0
2017-May-12 22:29N 30°50' E 122°53'47212.5
2017-May-11 08:48N 23°56' E 118°37'  
Track history (hours):
 
Tides and Currents Weather Stations Pressure Air Temp Water Temp Dewpoint Dewpoint Depression Visibility Wind Speed Wind Dir Waves Ship Positions

Apj Shirin

Last reported at 2017-May-16 22:45 UTC. Time now 2017-May-22 19:26 UTC.
Position N 31°60' E 120°50'.

Length 189 m; draft 6.8 m.

Type: Cargo ship. MMSI: 373223000.

Date/timePositionNaut miles runAvg speedWind from/ knotsBaromVisibWave heightAir tempDewpointWater temp
2017-May-16 22:45N 31°60' E 120°50'0 0.0
2017-May-16 22:12N 31°60' E 120°50'0 0.0
2017-May-16 21:48N 31°60' E 120°50'0 0.0
2017-May-16 20:45N 31°60' E 120°50'0 0.0
2017-May-16 20:29N 31°60' E 120°50'  
2017-May-13 10:49N 31°46' E 121°04'411.2
2017-May-13 10:30N 31°44' E 121°07'611.3
2017-May-13 10:00N 31°40' E 121°12'611.8
2017-May-13 09:30N 31°36' E 121°17'612.2
2017-May-13 09:00N 31°32' E 121°22'612.1
2017-May-13 08:30N 31°28' E 121°28'4 8.6
2017-May-13 08:00N 31°25' E 121°31'4 7.1
2017-May-13 07:30N 31°23' E 121°35'3 6.8
2017-May-13 07:00N 31°22' E 121°39'4 8.4
2017-May-13 06:30N 31°19' E 121°43'713.3
2017-May-13 06:00N 31°14' E 121°47'815.3
2017-May-13 05:31N 31°09' E 121°54'612.5
2017-May-13 05:01N 31°05' E 122°00'713.7
2017-May-13 04:30N 31°03' E 122°08'610.9
2017-May-13 04:00N 31°03' E 122°14'4 8.5
2017-May-13 03:30N 31°03' E 122°19'3 6.6
2017-May-13 03:00N 31°02' E 122°23'3 6.6
2017-May-13 02:30N 31°01' E 122°27'3 6.5
2017-May-13 02:00N 31°00' E 122°30'3 6.9
2017-May-13 01:30N 30°60' E 122°34'3 5.9
2017-May-13 01:00N 30°59' E 122°38'3 5.6
2017-May-13 00:30N 30°58' E 122°40'3 5.9
2017-May-12 23:57N 30°56' E 122°44'3 6.4
2017-May-12 23:27N 30°54' E 122°47'3 6.3
2017-May-12 22:57N 30°52' E 122°50'3 7.0
2017-May-12 22:29N 30°50' E 122°53'47212.5
2017-May-11 08:48N 23°56' E 118°37'  

Dump ship's entire track history